Observations for STORNOWAY, United Kingdom (EGPO)

EGPO 221420Z 26027G39KT 9999 FEW017 BKN022 BKN028 11/08 Q1024   
EGPO 221350Z 26031G41KT 9999 FEW017 BKN022 BKN028 11/08 Q1024   
EGPO 221320Z 26029G42KT 9999 FEW017 BKN022 BKN028 11/08 Q1025   
EGPO 221250Z 25027G39KT 9999 FEW017 BKN022 11/08 Q1025  
EGPO 221220Z 25027G39KT 9999 FEW018 BKN024 11/08 Q1025  
EGPO 221150Z 26025G38KT 9999 FEW018 BKN024 11/08 Q1026  
EGPO 221120Z 25025G36KT 9999 FEW018 SCT026 11/08 Q1026  
EGPO 221050Z 26024G34KT 9999 -RA FEW014 SCT018 BKN034 10/08 Q1027   
EGPO 221020Z 26023G34KT 9999 VCSH FEW014 BKN028 10/08 Q1027 
EGPO 220950Z 26022KT 9999 VCSH FEW014 SCT020 BKN032 10/08 Q1028 
EGPO 220920Z 25022KT 9999 VCSH FEW014 SCT018 BKN030 10/08 Q1027 
EGPO 220850Z 26019KT 9999 VCSH FEW014 10/08 Q1027   
EGPO 220820Z 25016KT 9999 VCSH FEW014 SCT035 10/08 Q1028
EGPO 220750Z 24013KT 9999 VCSH FEW014 SCT018 BKN049 09/08 Q1028 
EGPO 220720Z 25016KT 9999 VCSH FEW014 BKN030 09/07 Q1028
EGPO 220650Z 25014KT 9999 VCSH FEW014 BKN038 09/06 Q1028
EGPO 220620Z 25014KT 9999 VCSH FEW018CB SCT042 08/06 Q1028  
EGPO 220550Z 24012KT 9999 VCSH FEW018CB SCT042 08/06 Q1028  
EGPO 220520Z 25012KT 9999 VCSH FEW018CB SCT032 08/05 Q1028  
EGPO 220450Z 26013KT 9999 VCSH FEW018CB SCT032 08/05 Q1029  
EGPO 220420Z 26012KT 9999 VCSH FEW018CB SCT040 08/05 Q1028  
EGPO 220350Z AUTO 27012KT 9999 NCD 07/04 Q1028  
EGPO 220320Z AUTO 27012KT 9999 NCD 07/05 Q1028  
EGPO 220250Z AUTO 28009KT 9999 BKN029/// BKN046/// 07/05 Q1028  
EGPO 220220Z AUTO 28014KT 250V320 9999 SCT036/// BKN049/// 08/05 Q1028  
EGPO 220150Z AUTO 27011KT 9999 FEW035/// 07/05 Q1028 RERA   
EGPO 220120Z AUTO 30021KT 2300 +RA FEW005/// SCT023/// BKN036/// 07/05 Q1028
EGPO 220050Z AUTO 27014KT 9999 NCD 06/04 Q1027  
EGPO 220020Z AUTO 27019G29KT 9999 FEW011/// SCT039/// 06/04 Q1027 RERA  
EGPO 212350Z AUTO 28019KT 9999 SCT037/// BKN045/// 08/03 Q1027  
EGPO 212320Z AUTO 27018KT 9999 SCT047/// 08/03 Q1026
EGPO 212250Z AUTO 27015KT 9999 SCT045/// 08/03 Q1026
EGPO 212220Z AUTO 28016KT 9999 SCT046/// 08/03 Q1026
EGPO 212150Z AUTO 28016KT 9999 SCT035/// SCT049/// 07/03 Q1025  
EGPO 212120Z AUTO 26013KT 9999 FEW029/// 06/03 Q1025 RERA   
EGPO 212050Z AUTO 26015G25KT 240V300 4400 RA FEW005/// SCT025/// BKN032/// 06/03 Q1025  
EGPO 212020Z AUTO 26013KT 9999 NCD 06/02 Q1025  
EGPO 211950Z AUTO 27018KT 9999 SCT036/// 07/03 Q1025
EGPO 211920Z AUTO 26015KT 9999 FEW047/// 07/03 Q1024
EGPO 211850Z AUTO 27015KT 9999 FEW036/// 06/03 Q1024
EGPO 211820Z AUTO 27017G31KT 9999 -RA FEW022/// SCT035/// BKN044/// 07/03 Q1024 
EGPO 211750Z AUTO 29012KT 9999 NCD 07/03 Q1024  
EGPO 211720Z 28015KT 9999 VCSH FEW018CB FEW025 07/02 Q1023  
EGPO 211650Z 28019KT 9999 VCSH FEW018CB FEW025 08/03 Q1022  
EGPO 211620Z 28015KT 9999 VCSH FEW014 FEW018CB SCT025 07/04 Q1022   
EGPO 211550Z 28017KT 9999 VCSH FEW014 SCT018CB SCT025 07/05 Q1021 RESHRA
EGPO 211520Z 27017KT 9999 VCSH FEW016 FEW020CB SCT025 09/05 Q1021   
EGPO 211450Z 27020G33KT 9999 -SHRA FEW016 FEW020CB SCT025 08/05 Q1021   
EGPO 211420Z 26021KT 9999 VCSH FEW016 SCT025 10/04 Q1020
EGPO 211350Z 27018G30KT 9999 VCSH FEW016 SCT028 10/05 Q1020